CYHU/YHU METAR and TAF weather

Enter ICAO airport designator
Station Type Date Time Source
CYHU METAR 2019/08/24 09:00 UTC NOAA

CYHU 240900Z AUTO 32004KT 9SM SCT028 13/10 A3017 RMK SLP217


Station Type Date Time Source
CYHU Decoded METAR 2019/08/24 09:00 UTC NOAA

Station name not available
Aug 24, 2019 - 05:00 AM EDT / 2019.08.24 0900 UTC
Wind: from the NW (320 degrees) at 5 MPH (4 KT):0
Visibility: 9 mile(s):0
Sky conditions: partly cloudy
Temperature: 55 F (13 C)
Dew Point: 50 F (10 C)
Relative Humidity: 81%
Pressure (altimeter): 30.17 in. Hg (1021 hPa)
ob: CYHU 240900Z AUTO 32004KT 9SM SCT028 13/10 A3017 RMK SLP217
cycle: 9

Station Type Date Time Source
CYHU TAF 2019/08/24 06:42 UTC NOAA

TAF CYHU 240538Z 2406/2506 34008KT P6SM OVC060
FM241500 02010KT P6SM BKN030
FM250000 07008KT P6SM FEW040
RMK FCST BASED ON AUTO OBS. NXT FCST BY 241200Z

Example: see airport list